Time,TemperatureF,DewpointF,PressureIn,WindDirection,WindDirectionDegrees,WindSpeedMPH,WindSpeedGustMPH,Humidity,HourlyPrecipIn,Conditions,Clouds,dailyrainin,SoftwareType,DateUTC
2013-07-27 00:00:00,76.7,69.7,30.01,ENE,68,0.0,-999.0,79,0.00,,,0.00,Wunderground v.1.15,2013-07-27 04:00:00,
2013-07-27 00:05:00,76.7,69.7,30.01,ENE,68,0.0,-999.0,79,0.00,,,0.00,Wunderground v.1.15,2013-07-27 04:05:00,
2013-07-27 00:10:00,76.7,69.7,30.01,ENE,68,0.0,-999.0,79,0.00,,,0.00,Wunderground v.1.15,2013-07-27 04:10:00,
2013-07-27 00:15:00,76.7,69.7,30.01,ENE,68,0.0,-999.0,79,0.00,,,0.00,Wunderground v.1.15,2013-07-27 04:15:00,
2013-07-27 00:20:00,76.7,69.7,30.01,ENE,68,0.0,-999.0,79,0.00,,,0.00,Wunderground v.1.15,2013-07-27 04:20:00,
2013-07-27 00:25:00,76.7,69.7,30.01,ENE,68,0.0,-999.0,79,0.00,,,0.00,Wunderground v.1.15,2013-07-27 04:25:00,
2013-07-27 00:30:00,76.7,69.7,30.01,ENE,68,0.0,-999.0,79,0.00,,,0.00,Wunderground v.1.15,2013-07-27 04:30:00,
2013-07-27 00:35:00,76.7,69.7,30.01,ENE,68,0.0,-999.0,79,0.00,,,0.00,Wunderground v.1.15,2013-07-27 04:35:00,
2013-07-27 00:40:00,76.7,69.7,30.01,ENE,68,0.0,-999.0,79,0.00,,,0.00,Wunderground v.1.15,2013-07-27 04:40:00,
2013-07-27 00:45:00,76.3,69.3,30.01,East,90,0.0,-999.0,79,0.00,,,0.00,Wunderground v.1.15,2013-07-27 04:45:00,
2013-07-27 00:50:00,76.3,69.3,30.01,East,90,0.0,-999.0,79,0.00,,,0.00,Wunderground v.1.15,2013-07-27 04:50:00,
2013-07-27 00:55:00,76.3,69.3,30.01,East,90,0.0,-999.0,79,0.00,,,0.00,Wunderground v.1.15,2013-07-27 04:55:00,
2013-07-27 01:00:00,76.3,69.3,30.01,East,90,0.0,-999.0,79,0.00,,,0.00,Wunderground v.1.15,2013-07-27 05:00:00,
2013-07-27 01:05:00,76.3,69.3,30.01,East,90,0.0,-999.0,79,0.00,,,0.00,Wunderground v.1.15,2013-07-27 05:05:00,
2013-07-27 01:10:00,76.3,69.3,30.01,East,90,0.0,-999.0,79,0.00,,,0.00,Wunderground v.1.15,2013-07-27 05:10:00,
2013-07-27 01:15:00,76.0,69.0,30.00,North,0,0.0,-999.0,79,0.00,,,0.00,Wunderground v.1.15,2013-07-27 05:15:00,
2013-07-27 01:20:00,76.0,69.0,30.00,North,0,0.0,-999.0,79,0.00,,,0.00,Wunderground v.1.15,2013-07-27 05:20:00,
2013-07-27 01:25:00,76.0,69.0,30.00,North,0,0.0,-999.0,79,0.00,,,0.00,Wunderground v.1.15,2013-07-27 05:25:00,
2013-07-27 01:30:00,76.0,69.0,30.00,North,0,0.0,-999.0,79,0.00,,,0.00,Wunderground v.1.15,2013-07-27 05:30:00,
2013-07-27 01:35:00,76.0,69.0,30.00,North,0,0.0,-999.0,79,0.00,,,0.00,Wunderground v.1.15,2013-07-27 05:35:00,
2013-07-27 01:40:00,76.0,69.0,30.00,North,0,0.0,-999.0,79,0.00,,,0.00,Wunderground v.1.15,2013-07-27 05:40:00,
2013-07-27 01:45:00,75.6,69.4,29.99,ENE,68,0.0,-999.0,81,0.00,,,0.00,Wunderground v.1.15,2013-07-27 05:45:00,
2013-07-27 01:50:00,75.6,69.4,29.99,ENE,68,0.0,-999.0,81,0.00,,,0.00,Wunderground v.1.15,2013-07-27 05:50:00,
2013-07-27 01:55:00,75.6,69.4,29.99,ENE,68,0.0,-999.0,81,0.00,,,0.00,Wunderground v.1.15,2013-07-27 05:55:00,
2013-07-27 02:00:00,75.6,69.4,29.99,ENE,68,0.0,-999.0,81,0.00,,,0.00,Wunderground v.1.15,2013-07-27 06:00:00,
2013-07-27 02:05:00,75.6,69.4,29.99,ENE,68,0.0,-999.0,81,0.00,,,0.00,Wunderground v.1.15,2013-07-27 06:05:00,
2013-07-27 02:10:00,75.6,69.4,29.99,ENE,68,0.0,-999.0,81,0.00,,,0.00,Wunderground v.1.15,2013-07-27 06:10:00,
2013-07-27 02:15:00,75.4,70.2,29.98,NW,315,0.0,-999.0,84,0.00,,,0.00,Wunderground v.1.15,2013-07-27 06:15:00,
2013-07-27 02:20:00,75.4,70.2,29.98,NW,315,0.0,-999.0,84,0.00,,,0.00,Wunderground v.1.15,2013-07-27 06:20:00,
2013-07-27 02:25:00,75.4,70.2,29.98,NW,315,0.0,-999.0,84,0.00,,,0.00,Wunderground v.1.15,2013-07-27 06:25:00,
2013-07-27 02:30:00,75.4,70.2,29.98,NW,315,0.0,-999.0,84,0.00,,,0.00,Wunderground v.1.15,2013-07-27 06:30:00,
2013-07-27 02:35:00,75.4,70.2,29.98,NW,315,0.0,-999.0,84,0.00,,,0.00,Wunderground v.1.15,2013-07-27 06:35:00,
2013-07-27 02:40:00,75.4,70.2,29.98,NW,315,0.0,-999.0,84,0.00,,,0.00,Wunderground v.1.15,2013-07-27 06:40:00,
2013-07-27 02:45:00,76.0,71.8,29.98,NW,315,1.0,-999.0,87,0.00,,,0.00,Wunderground v.1.15,2013-07-27 06:45:00,
2013-07-27 02:50:00,76.0,71.8,29.98,NW,315,1.0,-999.0,87,0.00,,,0.00,Wunderground v.1.15,2013-07-27 06:50:00,
2013-07-27 02:55:00,76.0,71.8,29.98,NW,315,1.0,-999.0,87,0.00,,,0.00,Wunderground v.1.15,2013-07-27 06:55:00,
2013-07-27 03:00:00,76.0,71.8,29.98,NW,315,1.0,-999.0,87,0.00,,,0.00,Wunderground v.1.15,2013-07-27 07:00:00,
2013-07-27 03:05:00,76.0,71.8,29.98,NW,315,1.0,-999.0,87,0.00,,,0.00,Wunderground v.1.15,2013-07-27 07:05:00,
2013-07-27 03:10:00,76.0,71.8,29.98,NW,315,1.0,-999.0,87,0.00,,,0.00,Wunderground v.1.15,2013-07-27 07:10:00,
2013-07-27 03:15:00,75.8,72.0,29.97,WNW,293,2.0,-999.0,88,0.00,,,0.00,Wunderground v.1.15,2013-07-27 07:15:00,
2013-07-27 03:20:00,75.8,72.0,29.97,WNW,293,2.0,-999.0,88,0.00,,,0.00,Wunderground v.1.15,2013-07-27 07:20:00,
2013-07-27 03:25:00,75.8,72.0,29.97,WNW,293,2.0,-999.0,88,0.00,,,0.00,Wunderground v.1.15,2013-07-27 07:25:00,
2013-07-27 03:30:00,75.8,72.0,29.97,WNW,293,2.0,-999.0,88,0.00,,,0.00,Wunderground v.1.15,2013-07-27 07:30:00,
2013-07-27 03:35:00,75.8,72.0,29.97,WNW,293,2.0,-999.0,88,0.00,,,0.00,Wunderground v.1.15,2013-07-27 07:35:00,
2013-07-27 03:40:00,75.8,72.0,29.97,WNW,293,2.0,-999.0,88,0.00,,,0.00,Wunderground v.1.15,2013-07-27 07:40:00,
2013-07-27 03:45:00,75.7,72.2,29.96,WNW,293,1.0,-999.0,89,0.00,,,0.00,Wunderground v.1.15,2013-07-27 07:45:00,
2013-07-27 03:50:00,75.7,72.2,29.96,WNW,293,1.0,-999.0,89,0.00,,,0.00,Wunderground v.1.15,2013-07-27 07:50:00,
2013-07-27 03:55:00,75.7,72.2,29.96,WNW,293,1.0,-999.0,89,0.00,,,0.00,Wunderground v.1.15,2013-07-27 07:55:00,
2013-07-27 04:00:00,75.7,72.2,29.96,WNW,293,1.0,-999.0,89,0.00,,,0.00,Wunderground v.1.15,2013-07-27 08:00:00,
2013-07-27 04:05:00,75.7,72.2,29.96,WNW,293,1.0,-999.0,89,0.00,,,0.00,Wunderground v.1.15,2013-07-27 08:05:00,
2013-07-27 04:10:00,75.7,72.2,29.96,WNW,293,1.0,-999.0,89,0.00,,,0.00,Wunderground v.1.15,2013-07-27 08:10:00,
2013-07-27 04:15:00,76.3,73.1,29.96,WNW,293,2.0,-999.0,90,0.00,,,0.00,Wunderground v.1.15,2013-07-27 08:15:00,
2013-07-27 04:20:00,76.3,73.1,29.96,WNW,293,2.0,-999.0,90,0.00,,,0.00,Wunderground v.1.15,2013-07-27 08:20:00,
2013-07-27 04:25:00,76.3,73.1,29.96,WNW,293,2.0,-999.0,90,0.00,,,0.00,Wunderground v.1.15,2013-07-27 08:25:00,
2013-07-27 04:30:00,76.3,73.1,29.96,WNW,293,2.0,-999.0,90,0.00,,,0.00,Wunderground v.1.15,2013-07-27 08:30:00,
2013-07-27 04:35:00,76.3,73.1,29.96,WNW,293,2.0,-999.0,90,0.00,,,0.00,Wunderground v.1.15,2013-07-27 08:35:00,
2013-07-27 04:40:00,76.3,73.1,29.96,WNW,293,2.0,-999.0,90,0.00,,,0.00,Wunderground v.1.15,2013-07-27 08:40:00,
2013-07-27 04:45:00,76.2,73.1,29.95,WNW,293,3.0,-999.0,90,0.00,,,0.00,Wunderground v.1.15,2013-07-27 08:45:00,
2013-07-27 04:50:00,76.2,73.1,29.95,WNW,293,3.0,-999.0,90,0.00,,,0.00,Wunderground v.1.15,2013-07-27 08:50:00,
2013-07-27 04:55:00,76.2,73.1,29.95,WNW,293,3.0,-999.0,90,0.00,,,0.00,Wunderground v.1.15,2013-07-27 08:55:00,
2013-07-27 05:00:00,76.2,73.1,29.95,WNW,293,3.0,-999.0,90,0.00,,,0.00,Wunderground v.1.15,2013-07-27 09:00:00,
2013-07-27 05:05:00,76.2,73.1,29.95,WNW,293,3.0,-999.0,90,0.00,,,0.00,Wunderground v.1.15,2013-07-27 09:05:00,
2013-07-27 05:10:00,76.2,73.1,29.95,WNW,293,3.0,-999.0,90,0.00,,,0.00,Wunderground v.1.15,2013-07-27 09:10:00,
2013-07-27 05:15:00,75.7,72.2,29.96,WNW,293,2.0,-999.0,89,0.00,,,0.00,Wunderground v.1.15,2013-07-27 09:15:00,
2013-07-27 05:20:00,75.7,72.2,29.96,WNW,293,2.0,-999.0,89,0.00,,,0.00,Wunderground v.1.15,2013-07-27 09:20:00,
2013-07-27 05:25:00,75.7,72.2,29.96,WNW,293,2.0,-999.0,89,0.00,,,0.00,Wunderground v.1.15,2013-07-27 09:25:00,
2013-07-27 05:30:00,75.7,72.2,29.96,WNW,293,2.0,-999.0,89,0.00,,,0.00,Wunderground v.1.15,2013-07-27 09:30:00,
2013-07-27 05:35:00,75.7,72.2,29.96,WNW,293,2.0,-999.0,89,0.00,,,0.00,Wunderground v.1.15,2013-07-27 09:35:00,
2013-07-27 05:40:00,75.7,72.2,29.96,WNW,293,2.0,-999.0,89,0.00,,,0.00,Wunderground v.1.15,2013-07-27 09:40:00,
2013-07-27 05:45:00,75.1,71.6,29.95,WNW,293,1.0,-999.0,89,0.00,,,0.00,Wunderground v.1.15,2013-07-27 09:45:00,
2013-07-27 05:50:00,75.1,71.6,29.95,WNW,293,1.0,-999.0,89,0.00,,,0.00,Wunderground v.1.15,2013-07-27 09:50:00,
2013-07-27 05:55:00,75.1,71.6,29.95,WNW,293,1.0,-999.0,89,0.00,,,0.00,Wunderground v.1.15,2013-07-27 09:55:00,
2013-07-27 06:00:00,75.1,71.6,29.95,WNW,293,1.0,-999.0,89,0.00,,,0.00,Wunderground v.1.15,2013-07-27 10:00:00,
2013-07-27 06:05:00,75.1,71.6,29.95,WNW,293,1.0,-999.0,89,0.00,,,0.00,Wunderground v.1.15,2013-07-27 10:05:00,
2013-07-27 06:10:00,75.1,71.6,29.95,WNW,293,1.0,-999.0,89,0.00,,,0.00,Wunderground v.1.15,2013-07-27 10:10:00,
2013-07-27 06:15:00,74.9,71.4,29.97,WNW,293,1.0,-999.0,89,0.00,,,0.00,Wunderground v.1.15,2013-07-27 10:15:00,
2013-07-27 06:20:00,74.9,71.4,29.97,WNW,293,1.0,-999.0,89,0.00,,,0.00,Wunderground v.1.15,2013-07-27 10:20:00,
2013-07-27 06:25:00,74.9,71.4,29.97,WNW,293,1.0,-999.0,89,0.00,,,0.00,Wunderground v.1.15,2013-07-27 10:25:00,
2013-07-27 06:30:00,74.9,71.4,29.97,WNW,293,1.0,-999.0,89,0.00,,,0.00,Wunderground v.1.15,2013-07-27 10:30:00,
2013-07-27 06:35:00,74.9,71.4,29.97,WNW,293,1.0,-999.0,89,0.00,,,0.00,Wunderground v.1.15,2013-07-27 10:35:00,
2013-07-27 06:40:00,74.9,71.4,29.97,WNW,293,1.0,-999.0,89,0.00,,,0.00,Wunderground v.1.15,2013-07-27 10:40:00,
2013-07-27 06:45:00,74.8,71.3,29.96,NW,315,1.0,-999.0,89,0.00,,,0.00,Wunderground v.1.15,2013-07-27 10:45:00,
2013-07-27 06:50:00,74.8,71.3,29.96,NW,315,1.0,-999.0,89,0.00,,,0.00,Wunderground v.1.15,2013-07-27 10:50:00,
2013-07-27 06:55:00,74.8,71.3,29.96,NW,315,1.0,-999.0,89,0.00,,,0.00,Wunderground v.1.15,2013-07-27 10:55:00,
2013-07-27 07:00:00,74.8,71.3,29.96,NW,315,1.0,-999.0,89,0.00,,,0.00,Wunderground v.1.15,2013-07-27 11:00:00,
2013-07-27 07:05:00,74.8,71.3,29.96,NW,315,1.0,-999.0,89,0.00,,,0.00,Wunderground v.1.15,2013-07-27 11:05:00,
2013-07-27 07:10:00,74.8,71.3,29.96,NW,315,1.0,-999.0,89,0.00,,,0.00,Wunderground v.1.15,2013-07-27 11:10:00,
2013-07-27 07:15:00,74.7,70.9,29.97,NE,45,1.0,-999.0,88,0.00,,,0.00,Wunderground v.1.15,2013-07-27 11:15:00,
2013-07-27 07:20:00,74.7,70.9,29.97,NE,45,1.0,-999.0,88,0.00,,,0.00,Wunderground v.1.15,2013-07-27 11:20:00,
2013-07-27 07:25:00,74.7,70.9,29.97,NE,45,1.0,-999.0,88,0.00,,,0.00,Wunderground v.1.15,2013-07-27 11:25:00,
2013-07-27 07:30:00,74.7,70.9,29.97,NE,45,1.0,-999.0,88,0.00,,,0.00,Wunderground v.1.15,2013-07-27 11:30:00,
2013-07-27 08:50:00,74.7,71.6,29.98,East,94,0.0,6.0,90,0.15,,,0.03,Wunderground v.1.15,2013-07-27 12:50:00,
2013-07-27 08:55:00,74.6,71.8,29.98,East,101,0.0,6.0,91,0.08,,,0.04,Wunderground v.1.15,2013-07-27 12:55:00,
2013-07-27 09:00:00,74.4,71.6,29.98,ESE,103,0.0,6.0,91,0.15,,,0.05,Wunderground v.1.15,2013-07-27 13:00:00,
2013-07-27 09:05:00,74.3,71.8,29.97,NNE,28,0.0,6.0,92,0.07,,,0.05,Wunderground v.1.15,2013-07-27 13:05:00,
2013-07-27 09:10:00,74.2,71.7,29.97,East,82,1.0,1.0,92,0.04,,,0.05,Wunderground v.1.15,2013-07-27 13:10:00,
2013-07-27 09:15:00,74.1,71.6,29.97,ESE,107,1.0,1.0,92,0.18,,,0.06,Wunderground v.1.15,2013-07-27 13:15:00,
2013-07-27 09:20:00,74.1,71.6,29.97,NNE,13,1.0,1.0,92,0.12,,,0.07,Wunderground v.1.15,2013-07-27 13:20:00,
2013-07-27 09:25:00,74.1,71.6,29.97,NE,42,0.0,1.0,92,0.06,,,0.07,Wunderground v.1.15,2013-07-27 13:25:00,
2013-07-27 09:30:00,74.1,71.6,29.97,NW,325,0.0,1.0,92,0.04,,,0.07,Wunderground v.1.15,2013-07-27 13:30:00,
2013-07-27 09:35:00,74.5,72.3,29.97,West,277,1.0,2.0,93,0.00,,,0.07,Wunderground v.1.15,2013-07-27 13:35:00,
2013-07-27 09:40:00,74.8,72.6,29.98,NW,323,2.0,2.0,93,0.00,,,0.07,Wunderground v.1.15,2013-07-27 13:40:00,
2013-07-27 09:45:00,75.0,72.8,29.97,NW,309,1.0,2.0,93,0.00,,,0.07,Wunderground v.1.15,2013-07-27 13:45:00,
2013-07-27 09:50:00,75.1,72.9,29.97,West,275,1.0,1.0,93,0.00,,,0.07,Wunderground v.1.15,2013-07-27 13:50:00,
2013-07-27 09:55:00,75.3,73.1,29.97,WSW,255,1.0,1.0,93,0.00,,,0.07,Wunderground v.1.15,2013-07-27 13:55:00,
2013-07-27 10:00:00,75.4,72.9,29.98,West,281,1.0,1.0,92,0.00,,,0.07,Wunderground v.1.15,2013-07-27 14:00:00,
2013-07-27 10:05:00,75.4,72.9,29.97,WNW,286,1.0,6.0,92,0.00,,,0.07,Wunderground v.1.15,2013-07-27 14:05:00,
2013-07-27 10:10:00,75.5,73.0,29.97,WSW,243,1.0,1.0,92,0.00,,,0.07,Wunderground v.1.15,2013-07-27 14:10:00,
2013-07-27 10:15:00,75.5,73.0,29.97,WNW,285,1.0,6.0,92,0.00,,,0.07,Wunderground v.1.15,2013-07-27 14:15:00,
2013-07-27 10:20:00,75.7,73.2,29.97,WNW,284,1.0,1.0,92,0.00,,,0.07,Wunderground v.1.15,2013-07-27 14:20:00,
2013-07-27 10:25:00,75.7,73.2,29.97,West,270,1.0,6.0,92,0.00,,,0.07,Wunderground v.1.15,2013-07-27 14:25:00,
2013-07-27 10:30:00,75.6,73.1,29.97,East,80,1.0,1.0,92,0.00,,,0.07,Wunderground v.1.15,2013-07-27 14:30:00,
2013-07-27 10:35:00,75.4,72.6,29.97,NNE,26,0.0,6.0,91,0.00,,,0.07,Wunderground v.1.15,2013-07-27 14:35:00,
2013-07-27 10:40:00,75.2,72.4,29.97,WNW,301,0.0,6.0,91,0.00,,,0.07,Wunderground v.1.15,2013-07-27 14:40:00,
2013-07-27 10:45:00,75.3,72.8,29.96,North,5,1.0,6.0,92,0.00,,,0.07,Wunderground v.1.15,2013-07-27 14:45:00,
2013-07-27 10:50:00,75.4,72.9,29.96,NW,319,1.0,1.0,92,0.00,,,0.07,Wunderground v.1.15,2013-07-27 14:50:00,
2013-07-27 10:55:00,75.6,73.1,29.97,North,350,1.0,6.0,92,0.00,,,0.07,Wunderground v.1.15,2013-07-27 14:55:00,
2013-07-27 11:00:00,75.7,72.9,29.97,WNW,293,1.0,-999.0,91,0.00,,,1.63,Wunderground v.1.15,2013-07-27 15:00:00,
2013-07-27 11:05:00,75.7,72.9,29.96,ENE,71,1.0,6.0,91,0.00,,,0.07,Wunderground v.1.15,2013-07-27 15:05:00,
2013-07-27 11:10:00,75.6,72.8,29.96,East,79,0.0,6.0,91,0.00,,,0.07,Wunderground v.1.15,2013-07-27 15:10:00,
2013-07-27 11:15:00,75.6,72.8,29.96,ENE,69,0.0,6.0,91,0.00,,,0.07,Wunderground v.1.15,2013-07-27 15:15:00,
2013-07-27 11:20:00,75.6,72.8,29.96,ENE,69,0.0,6.0,91,0.00,,,0.07,Wunderground v.1.15,2013-07-27 15:20:00,
2013-07-27 11:25:00,75.5,72.7,29.96,ENE,69,0.0,6.0,91,0.00,,,0.07,Wunderground v.1.15,2013-07-27 15:25:00,
2013-07-27 11:30:00,75.6,72.8,29.96,ENE,69,0.0,6.0,91,0.00,,,0.07,Wunderground v.1.15,2013-07-27 15:30:00,
2013-07-27 11:35:00,75.6,73.1,29.96,ENE,69,0.0,6.0,92,0.00,,,0.08,Wunderground v.1.15,2013-07-27 15:35:00,
2013-07-27 11:40:00,75.7,73.2,29.96,ENE,69,0.0,6.0,92,0.00,,,0.08,Wunderground v.1.15,2013-07-27 15:40:00,
2013-07-27 11:45:00,75.7,73.2,29.97,West,263,1.0,6.0,92,0.06,,,0.09,Wunderground v.1.15,2013-07-27 15:45:00,
2013-07-27 11:50:00,75.5,73.0,29.97,WSW,245,2.0,6.0,92,0.44,,,0.14,Wunderground v.1.15,2013-07-27 15:50:00,
2013-07-27 11:55:00,74.5,71.4,29.97,WNW,288,4.0,6.0,90,0.92,,,0.17,Wunderground v.1.15,2013-07-27 15:55:00,
2013-07-27 12:00:00,73.2,70.4,29.97,West,278,4.0,6.0,91,3.31,,,0.38,Wunderground v.1.15,2013-07-27 16:00:00,
2013-07-27 12:05:00,72.0,69.5,29.97,WSW,250,5.0,6.0,92,3.35,,,0.56,Wunderground v.1.15,2013-07-27 16:05:00,
2013-07-27 12:10:00,71.0,68.9,29.98,West,272,6.0,8.0,93,3.20,,,0.84,Wunderground v.1.15,2013-07-27 16:10:00,
2013-07-27 12:30:00,70.7,68.9,29.98,West,270,4.0,-999.0,94,1.13,,,1.63,Wunderground v.1.15,2013-07-27 16:30:00,
2013-07-27 12:35:00,70.7,68.9,29.98,West,270,4.0,-999.0,94,1.13,,,1.63,Wunderground v.1.15,2013-07-27 16:35:00,
2013-07-27 12:40:00,70.7,68.9,29.98,West,270,4.0,-999.0,94,1.13,,,1.63,Wunderground v.1.15,2013-07-27 16:40:00,
2013-07-27 12:45:00,69.5,67.7,29.97,WSW,248,3.0,-999.0,94,0.97,,,1.63,Wunderground v.1.15,2013-07-27 16:45:00,
2013-07-27 12:50:00,69.5,67.7,29.97,WSW,248,3.0,-999.0,94,0.97,,,1.63,Wunderground v.1.15,2013-07-27 16:50:00,
2013-07-27 12:55:00,69.5,67.7,29.97,WSW,248,3.0,-999.0,94,0.97,,,1.63,Wunderground v.1.15,2013-07-27 16:55:00,
2013-07-27 13:00:00,69.5,67.7,29.97,WSW,248,3.0,-999.0,94,0.97,,,1.63,Wunderground v.1.15,2013-07-27 17:00:00,
2013-07-27 13:05:00,69.5,67.7,29.97,WSW,248,3.0,-999.0,94,0.97,,,1.63,Wunderground v.1.15,2013-07-27 17:05:00,
2013-07-27 13:10:00,69.5,67.7,29.97,WSW,248,3.0,-999.0,94,0.97,,,1.63,Wunderground v.1.15,2013-07-27 17:10:00,
2013-07-27 13:15:00,69.2,67.4,29.95,WSW,248,3.0,-999.0,94,0.27,,,1.63,Wunderground v.1.15,2013-07-27 17:15:00,
2013-07-27 13:20:00,69.2,67.4,29.95,WSW,248,3.0,-999.0,94,0.27,,,1.63,Wunderground v.1.15,2013-07-27 17:20:00,
2013-07-27 13:25:00,69.2,67.4,29.95,WSW,248,3.0,-999.0,94,0.27,,,1.63,Wunderground v.1.15,2013-07-27 17:25:00,
2013-07-27 13:30:00,69.2,67.4,29.95,WSW,248,3.0,-999.0,94,0.27,,,1.63,Wunderground v.1.15,2013-07-27 17:30:00,
2013-07-27 13:35:00,69.2,67.4,29.95,WSW,248,3.0,-999.0,94,0.27,,,1.63,Wunderground v.1.15,2013-07-27 17:35:00,
2013-07-27 13:40:00,69.2,67.4,29.95,WSW,248,3.0,-999.0,94,0.27,,,1.63,Wunderground v.1.15,2013-07-27 17:40:00,
2013-07-27 13:45:00,68.5,66.7,29.96,WNW,293,2.0,-999.0,94,0.20,,,1.63,Wunderground v.1.15,2013-07-27 17:45:00,
2013-07-27 13:50:00,68.5,66.7,29.96,WNW,293,2.0,-999.0,94,0.20,,,1.63,Wunderground v.1.15,2013-07-27 17:50:00,
2013-07-27 13:55:00,68.5,66.7,29.96,WNW,293,2.0,-999.0,94,0.20,,,1.63,Wunderground v.1.15,2013-07-27 17:55:00,
2013-07-27 14:00:00,68.5,66.7,29.96,WNW,293,2.0,-999.0,94,0.20,,,1.63,Wunderground v.1.15,2013-07-27 18:00:00,
2013-07-27 14:05:00,68.5,66.7,29.96,WNW,293,2.0,-999.0,94,0.20,,,1.63,Wunderground v.1.15,2013-07-27 18:05:00,
2013-07-27 14:10:00,68.5,66.7,29.96,WNW,293,2.0,-999.0,94,0.20,,,1.63,Wunderground v.1.15,2013-07-27 18:10:00,
2013-07-27 14:15:00,68.5,67.0,29.93,NNW,338,0.0,-999.0,95,0.15,,,1.63,Wunderground v.1.15,2013-07-27 18:15:00,
2013-07-27 14:20:00,68.5,67.0,29.93,NNW,338,0.0,-999.0,95,0.15,,,1.63,Wunderground v.1.15,2013-07-27 18:20:00,
2013-07-27 14:25:00,68.5,67.0,29.93,NNW,338,0.0,-999.0,95,0.15,,,1.63,Wunderground v.1.15,2013-07-27 18:25:00,
2013-07-27 14:30:00,68.5,67.0,29.93,NNW,338,0.0,-999.0,95,0.15,,,1.63,Wunderground v.1.15,2013-07-27 18:30:00,
2013-07-27 14:35:00,68.5,67.0,29.93,NNW,338,0.0,-999.0,95,0.15,,,1.63,Wunderground v.1.15,2013-07-27 18:35:00,
2013-07-27 14:40:00,68.5,67.0,29.93,NNW,338,0.0,-999.0,95,0.15,,,1.63,Wunderground v.1.15,2013-07-27 18:40:00,
2013-07-27 14:45:00,70.6,69.1,29.93,West,270,0.0,-999.0,95,0.08,,,1.63,Wunderground v.1.15,2013-07-27 18:45:00,
2013-07-27 14:50:00,70.6,69.1,29.93,West,270,0.0,-999.0,95,0.08,,,1.63,Wunderground v.1.15,2013-07-27 18:50:00,
2013-07-27 14:55:00,70.6,69.1,29.93,West,270,0.0,-999.0,95,0.08,,,1.63,Wunderground v.1.15,2013-07-27 18:55:00,
2013-07-27 15:00:00,70.6,69.1,29.93,West,270,0.0,-999.0,95,0.08,,,1.63,Wunderground v.1.15,2013-07-27 19:00:00,
2013-07-27 15:05:00,70.6,69.1,29.93,West,270,0.0,-999.0,95,0.08,,,1.63,Wunderground v.1.15,2013-07-27 19:05:00,
2013-07-27 15:10:00,70.6,69.1,29.93,West,270,0.0,-999.0,95,0.08,,,1.63,Wunderground v.1.15,2013-07-27 19:10:00,
2013-07-27 15:15:00,71.5,69.4,29.93,West,270,0.0,-999.0,93,0.01,,,1.63,Wunderground v.1.15,2013-07-27 19:15:00,
2013-07-27 15:20:00,71.5,69.4,29.93,West,270,0.0,-999.0,93,0.01,,,1.63,Wunderground v.1.15,2013-07-27 19:20:00,
2013-07-27 15:25:00,71.5,69.4,29.93,West,270,0.0,-999.0,93,0.01,,,1.63,Wunderground v.1.15,2013-07-27 19:25:00,
2013-07-27 15:30:00,71.5,69.4,29.93,West,270,0.0,-999.0,93,0.01,,,1.63,Wunderground v.1.15,2013-07-27 19:30:00,
2013-07-27 15:35:00,71.5,69.4,29.93,West,270,0.0,-999.0,93,0.01,,,1.63,Wunderground v.1.15,2013-07-27 19:35:00,
2013-07-27 15:40:00,71.5,69.4,29.93,West,270,0.0,-999.0,93,0.01,,,1.63,Wunderground v.1.15,2013-07-27 19:40:00,
2013-07-27 15:45:00,72.2,70.1,29.92,ENE,68,0.0,-999.0,93,0.00,,,1.63,Wunderground v.1.15,2013-07-27 19:45:00,
2013-07-27 15:50:00,72.2,70.1,29.92,ENE,68,0.0,-999.0,93,0.00,,,1.63,Wunderground v.1.15,2013-07-27 19:50:00,
2013-07-27 15:55:00,72.2,70.1,29.92,ENE,68,0.0,-999.0,93,0.00,,,1.63,Wunderground v.1.15,2013-07-27 19:55:00,
2013-07-27 16:00:00,72.2,70.1,29.92,ENE,68,0.0,-999.0,93,0.00,,,1.63,Wunderground v.1.15,2013-07-27 20:00:00,
2013-07-27 16:05:00,72.2,70.1,29.92,ENE,68,0.0,-999.0,93,0.00,,,1.63,Wunderground v.1.15,2013-07-27 20:05:00,
2013-07-27 16:10:00,72.2,70.1,29.92,ENE,68,0.0,-999.0,93,0.00,,,1.63,Wunderground v.1.15,2013-07-27 20:10:00,
2013-07-27 16:15:00,73.2,70.4,29.92,ENE,68,0.0,-999.0,91,0.00,,,1.63,Wunderground v.1.15,2013-07-27 20:15:00,
2013-07-27 16:20:00,73.2,70.4,29.92,ENE,68,0.0,-999.0,91,0.00,,,1.63,Wunderground v.1.15,2013-07-27 20:20:00,
2013-07-27 16:25:00,73.2,70.4,29.92,ENE,68,0.0,-999.0,91,0.00,,,1.63,Wunderground v.1.15,2013-07-27 20:25:00,
2013-07-27 16:30:00,73.2,70.4,29.92,ENE,68,0.0,-999.0,91,0.00,,,1.63,Wunderground v.1.15,2013-07-27 20:30:00,
2013-07-27 16:35:00,73.2,70.4,29.92,ENE,68,0.0,-999.0,91,0.00,,,1.63,Wunderground v.1.15,2013-07-27 20:35:00,
2013-07-27 16:40:00,73.2,70.4,29.92,ENE,68,0.0,-999.0,91,0.00,,,1.63,Wunderground v.1.15,2013-07-27 20:40:00,
2013-07-27 16:45:00,74.2,71.1,29.91,East,90,0.0,-999.0,90,0.00,,,1.63,Wunderground v.1.15,2013-07-27 20:45:00,
2013-07-27 16:50:00,74.2,71.1,29.91,East,90,0.0,-999.0,90,0.00,,,1.63,Wunderground v.1.15,2013-07-27 20:50:00,
2013-07-27 16:55:00,74.2,71.1,29.91,East,90,0.0,-999.0,90,0.00,,,1.63,Wunderground v.1.15,2013-07-27 20:55:00,
2013-07-27 17:00:00,74.2,71.1,29.91,East,90,0.0,-999.0,90,0.00,,,1.63,Wunderground v.1.15,2013-07-27 21:00:00,
2013-07-27 17:05:00,74.2,71.1,29.91,East,90,0.0,-999.0,90,0.00,,,1.63,Wunderground v.1.15,2013-07-27 21:05:00,
2013-07-27 17:10:00,74.2,71.1,29.91,East,90,0.0,-999.0,90,0.00,,,1.63,Wunderground v.1.15,2013-07-27 21:10:00,
2013-07-27 17:15:00,74.5,70.7,29.91,SE,135,0.0,-999.0,88,0.00,,,1.63,Wunderground v.1.15,2013-07-27 21:15:00,
2013-07-27 17:20:00,74.5,70.7,29.91,SE,135,0.0,-999.0,88,0.00,,,1.63,Wunderground v.1.15,2013-07-27 21:20:00,
2013-07-27 17:25:00,74.5,70.7,29.91,SE,135,0.0,-999.0,88,0.00,,,1.63,Wunderground v.1.15,2013-07-27 21:25:00,
2013-07-27 17:30:00,74.5,70.7,29.91,SE,135,0.0,-999.0,88,0.00,,,1.63,Wunderground v.1.15,2013-07-27 21:30:00,
2013-07-27 17:35:00,74.5,70.7,29.91,SE,135,0.0,-999.0,88,0.00,,,1.63,Wunderground v.1.15,2013-07-27 21:35:00,
2013-07-27 17:40:00,74.5,70.7,29.91,SE,135,0.0,-999.0,88,0.00,,,1.63,Wunderground v.1.15,2013-07-27 21:40:00,
2013-07-27 17:45:00,75.5,72.0,29.92,NNE,23,0.0,-999.0,89,0.00,,,1.63,Wunderground v.1.15,2013-07-27 21:45:00,
2013-07-27 17:50:00,75.5,72.0,29.92,NNE,23,0.0,-999.0,89,0.00,,,1.63,Wunderground v.1.15,2013-07-27 21:50:00,
2013-07-27 17:55:00,75.5,72.0,29.92,NNE,23,0.0,-999.0,89,0.00,,,1.63,Wunderground v.1.15,2013-07-27 21:55:00,
2013-07-27 18:00:00,75.5,72.0,29.92,NNE,23,0.0,-999.0,89,0.00,,,1.63,Wunderground v.1.15,2013-07-27 22:00:00,
2013-07-27 18:05:00,75.5,72.0,29.92,NNE,23,0.0,-999.0,89,0.00,,,1.63,Wunderground v.1.15,2013-07-27 22:05:00,
2013-07-27 18:10:00,75.5,72.0,29.92,NNE,23,0.0,-999.0,89,0.00,,,1.63,Wunderground v.1.15,2013-07-27 22:10:00,
2013-07-27 18:15:00,74.6,71.1,29.92,East,90,0.0,-999.0,89,0.00,,,1.63,Wunderground v.1.15,2013-07-27 22:15:00,
2013-07-27 18:20:00,74.6,71.1,29.92,East,90,0.0,-999.0,89,0.00,,,1.63,Wunderground v.1.15,2013-07-27 22:20:00,
2013-07-27 18:25:00,74.6,71.1,29.92,East,90,0.0,-999.0,89,0.00,,,1.63,Wunderground v.1.15,2013-07-27 22:25:00,
2013-07-27 18:30:00,74.6,71.1,29.92,East,90,0.0,-999.0,89,0.00,,,1.63,Wunderground v.1.15,2013-07-27 22:30:00,
2013-07-27 18:35:00,74.6,71.1,29.92,East,90,0.0,-999.0,89,0.00,,,1.63,Wunderground v.1.15,2013-07-27 22:35:00,
2013-07-27 18:40:00,74.6,71.1,29.92,East,90,0.0,-999.0,89,0.00,,,1.63,Wunderground v.1.15,2013-07-27 22:40:00,
2013-07-27 18:45:00,73.6,70.2,29.92,NNE,23,0.0,-999.0,89,0.00,,,1.63,Wunderground v.1.15,2013-07-27 22:45:00,
2013-07-27 18:50:00,73.6,70.2,29.92,NNE,23,0.0,-999.0,89,0.00,,,1.63,Wunderground v.1.15,2013-07-27 22:50:00,
2013-07-27 18:55:00,73.6,70.2,29.92,NNE,23,0.0,-999.0,89,0.00,,,1.63,Wunderground v.1.15,2013-07-27 22:55:00,
2013-07-27 19:00:00,73.6,70.2,29.92,NNE,23,0.0,-999.0,89,0.00,,,1.63,Wunderground v.1.15,2013-07-27 23:00:00,
2013-07-27 19:05:00,73.6,70.2,29.92,NNE,23,0.0,-999.0,89,0.00,,,1.63,Wunderground v.1.15,2013-07-27 23:05:00,
2013-07-27 19:10:00,73.6,70.2,29.92,NNE,23,0.0,-999.0,89,0.00,,,1.63,Wunderground v.1.15,2013-07-27 23:10:00,
2013-07-27 19:15:00,72.4,69.0,29.92,SE,135,0.0,-999.0,89,0.00,,,1.63,Wunderground v.1.15,2013-07-27 23:15:00,
2013-07-27 19:20:00,72.4,69.0,29.92,SE,135,0.0,-999.0,89,0.00,,,1.63,Wunderground v.1.15,2013-07-27 23:20:00,
2013-07-27 19:25:00,72.4,69.0,29.92,SE,135,0.0,-999.0,89,0.00,,,1.63,Wunderground v.1.15,2013-07-27 23:25:00,
2013-07-27 19:30:00,72.4,69.0,29.92,SE,135,0.0,-999.0,89,0.00,,,1.63,Wunderground v.1.15,2013-07-27 23:30:00,
2013-07-27 19:35:00,72.4,69.0,29.92,SE,135,0.0,-999.0,89,0.00,,,1.63,Wunderground v.1.15,2013-07-27 23:35:00,
2013-07-27 19:40:00,72.4,69.0,29.92,SE,135,0.0,-999.0,89,0.00,,,1.63,Wunderground v.1.15,2013-07-27 23:40:00,
2013-07-27 19:45:00,72.0,69.2,29.91,East,90,0.0,-999.0,91,0.00,,,1.63,Wunderground v.1.15,2013-07-27 23:45:00,
2013-07-27 19:50:00,72.0,69.2,29.91,East,90,0.0,-999.0,91,0.00,,,1.63,Wunderground v.1.15,2013-07-27 23:50:00,
2013-07-27 19:55:00,72.0,69.2,29.91,East,90,0.0,-999.0,91,0.00,,,1.63,Wunderground v.1.15,2013-07-27 23:55:00,
2013-07-27 20:00:00,72.0,69.2,29.91,East,90,0.0,-999.0,91,0.00,,,1.63,Wunderground v.1.15,2013-07-28 00:00:00,
2013-07-27 20:05:00,72.0,69.2,29.91,East,90,0.0,-999.0,91,0.00,,,1.63,Wunderground v.1.15,2013-07-28 00:05:00,
2013-07-27 20:10:00,72.0,69.2,29.91,East,90,0.0,-999.0,91,0.00,,,1.63,Wunderground v.1.15,2013-07-28 00:10:00,
2013-07-27 20:15:00,71.6,69.2,29.91,ENE,68,0.0,-999.0,92,0.00,,,1.63,Wunderground v.1.15,2013-07-28 00:15:00,
2013-07-27 20:20:00,71.6,69.2,29.91,ENE,68,0.0,-999.0,92,0.00,,,1.63,Wunderground v.1.15,2013-07-28 00:20:00,
2013-07-27 20:25:00,71.6,69.2,29.91,ENE,68,0.0,-999.0,92,0.00,,,1.63,Wunderground v.1.15,2013-07-28 00:25:00,
2013-07-27 20:30:00,71.6,69.2,29.91,ENE,68,0.0,-999.0,92,0.00,,,1.63,Wunderground v.1.15,2013-07-28 00:30:00,
2013-07-27 20:35:00,71.6,69.2,29.91,ENE,68,0.0,-999.0,92,0.00,,,1.63,Wunderground v.1.15,2013-07-28 00:35:00,
2013-07-27 20:40:00,71.6,69.2,29.91,ENE,68,0.0,-999.0,92,0.00,,,1.63,Wunderground v.1.15,2013-07-28 00:40:00,
2013-07-27 20:45:00,71.5,69.4,29.92,NE,45,0.0,-999.0,93,0.00,,,1.63,Wunderground v.1.15,2013-07-28 00:45:00,
2013-07-27 20:50:00,71.5,69.4,29.92,NE,45,0.0,-999.0,93,0.00,,,1.63,Wunderground v.1.15,2013-07-28 00:50:00,
2013-07-27 20:55:00,71.5,69.4,29.92,NE,45,0.0,-999.0,93,0.00,,,1.63,Wunderground v.1.15,2013-07-28 00:55:00,
2013-07-27 21:00:00,71.5,69.4,29.92,NE,45,0.0,-999.0,93,0.00,,,1.63,Wunderground v.1.15,2013-07-28 01:00:00,
2013-07-27 21:05:00,71.5,69.4,29.92,NE,45,0.0,-999.0,93,0.00,,,1.63,Wunderground v.1.15,2013-07-28 01:05:00,
2013-07-27 21:10:00,71.5,69.4,29.92,NE,45,0.0,-999.0,93,0.00,,,1.63,Wunderground v.1.15,2013-07-28 01:10:00,
2013-07-27 21:15:00,71.6,69.5,29.93,East,90,0.0,-999.0,93,0.00,,,1.63,Wunderground v.1.15,2013-07-28 01:15:00,
2013-07-27 21:20:00,71.6,69.5,29.93,East,90,0.0,-999.0,93,0.00,,,1.63,Wunderground v.1.15,2013-07-28 01:20:00,
2013-07-27 21:25:00,71.6,69.5,29.93,East,90,0.0,-999.0,93,0.00,,,1.63,Wunderground v.1.15,2013-07-28 01:25:00,
2013-07-27 21:30:00,71.6,69.5,29.93,East,90,0.0,-999.0,93,0.00,,,1.63,Wunderground v.1.15,2013-07-28 01:30:00,
2013-07-27 21:35:00,71.6,69.5,29.93,East,90,0.0,-999.0,93,0.00,,,1.63,Wunderground v.1.15,2013-07-28 01:35:00,
2013-07-27 21:40:00,71.6,69.5,29.93,East,90,0.0,-999.0,93,0.00,,,1.63,Wunderground v.1.15,2013-07-28 01:40:00,
2013-07-27 21:45:00,71.6,69.8,29.94,N/A,-737280,0.0,-999.0,94,0.00,,,1.63,Wunderground v.1.15,2013-07-28 01:45:00,
2013-07-27 21:50:00,71.6,69.8,29.94,N/A,-737280,0.0,-999.0,94,0.00,,,1.63,Wunderground v.1.15,2013-07-28 01:50:00,
2013-07-27 21:55:00,71.6,69.8,29.94,N/A,-737280,0.0,-999.0,94,0.00,,,1.63,Wunderground v.1.15,2013-07-28 01:55:00,
2013-07-27 22:00:00,71.6,69.8,29.94,N/A,-737280,0.0,-999.0,94,0.00,,,1.63,Wunderground v.1.15,2013-07-28 02:00:00,
2013-07-27 22:05:00,71.6,69.8,29.94,N/A,-737280,0.0,-999.0,94,0.00,,,1.63,Wunderground v.1.15,2013-07-28 02:05:00,
2013-07-27 22:10:00,71.6,69.8,29.94,N/A,-737280,0.0,-999.0,94,0.00,,,1.63,Wunderground v.1.15,2013-07-28 02:10:00,
2013-07-27 22:15:00,71.7,69.9,29.94,NE,45,0.0,-999.0,94,0.00,,,1.63,Wunderground v.1.15,2013-07-28 02:15:00,
2013-07-27 22:20:00,71.7,69.9,29.94,NE,45,0.0,-999.0,94,0.00,,,1.63,Wunderground v.1.15,2013-07-28 02:20:00,
2013-07-27 22:25:00,71.7,69.9,29.94,NE,45,0.0,-999.0,94,0.00,,,1.63,Wunderground v.1.15,2013-07-28 02:25:00,
2013-07-27 22:30:00,71.7,69.9,29.94,NE,45,0.0,-999.0,94,0.00,,,1.63,Wunderground v.1.15,2013-07-28 02:30:00,
2013-07-27 22:35:00,71.7,69.9,29.94,NE,45,0.0,-999.0,94,0.00,,,1.63,Wunderground v.1.15,2013-07-28 02:35:00,
2013-07-27 22:40:00,71.7,69.9,29.94,NE,45,0.0,-999.0,94,0.00,,,1.63,Wunderground v.1.15,2013-07-28 02:40:00,
2013-07-27 22:45:00,71.5,69.7,29.93,NE,45,0.0,-999.0,94,0.00,,,1.63,Wunderground v.1.15,2013-07-28 02:45:00,
2013-07-27 22:50:00,71.5,69.7,29.93,NE,45,0.0,-999.0,94,0.00,,,1.63,Wunderground v.1.15,2013-07-28 02:50:00,
2013-07-27 22:55:00,71.5,69.7,29.93,NE,45,0.0,-999.0,94,0.00,,,1.63,Wunderground v.1.15,2013-07-28 02:55:00,
2013-07-27 23:00:00,71.5,69.7,29.93,NE,45,0.0,-999.0,94,0.00,,,1.63,Wunderground v.1.15,2013-07-28 03:00:00,
2013-07-27 23:05:00,71.5,69.7,29.93,NE,45,0.0,-999.0,94,0.00,,,1.63,Wunderground v.1.15,2013-07-28 03:05:00,
2013-07-27 23:10:00,71.5,69.7,29.93,NE,45,0.0,-999.0,94,0.00,,,1.63,Wunderground v.1.15,2013-07-28 03:10:00,
2013-07-27 23:15:00,71.3,69.2,29.94,NE,45,0.0,-999.0,93,0.00,,,1.63,Wunderground v.1.15,2013-07-28 03:15:00,
2013-07-27 23:20:00,71.3,69.2,29.94,NE,45,0.0,-999.0,93,0.00,,,1.63,Wunderground v.1.15,2013-07-28 03:20:00,
2013-07-27 23:25:00,71.3,69.2,29.94,NE,45,0.0,-999.0,93,0.00,,,1.63,Wunderground v.1.15,2013-07-28 03:25:00,
2013-07-27 23:30:00,71.3,69.2,29.94,NE,45,0.0,-999.0,93,0.00,,,1.63,Wunderground v.1.15,2013-07-28 03:30:00,
2013-07-27 23:35:00,71.3,69.2,29.94,NE,45,0.0,-999.0,93,0.00,,,1.63,Wunderground v.1.15,2013-07-28 03:35:00,
2013-07-27 23:40:00,71.3,69.2,29.94,NE,45,0.0,-999.0,93,0.00,,,1.63,Wunderground v.1.15,2013-07-28 03:40:00,
2013-07-27 23:45:00,71.4,69.6,29.93,ENE,68,0.0,-999.0,94,0.00,,,1.63,Wunderground v.1.15,2013-07-28 03:45:00,
2013-07-27 23:50:00,71.4,69.6,29.93,ENE,68,0.0,-999.0,94,0.00,,,1.63,Wunderground v.1.15,2013-07-28 03:50:00,
2013-07-27 23:55:00,71.4,69.6,29.93,ENE,68,0.0,-999.0,94,0.00,,,1.63,Wunderground v.1.15,2013-07-28 03:55:00,